createdAt,value
2022-08-04T00:01:43.672Z,5.97
2022-08-04T00:04:49.231Z,6.20
2022-08-04T00:10:42.434Z,5.35
2022-08-04T00:13:31.541Z,6.07
2022-08-04T00:16:18.244Z,5.75
2022-08-04T00:19:37.281Z,5.50
2022-08-04T00:22:26.708Z,6.18
2022-08-04T00:25:12.636Z,5.82
2022-08-04T00:28:01.995Z,5.57
2022-08-04T00:30:49.535Z,5.63
2022-08-04T00:33:35.372Z,5.60
2022-08-04T00:36:24.902Z,6.30
2022-08-04T00:39:14.025Z,6.15
2022-08-04T00:42:34.625Z,6.68
2022-08-04T00:46:15.279Z,7.30
2022-08-04T00:49:46.931Z,6.30
2022-08-04T00:52:47.834Z,6.43
2022-08-04T00:55:53.852Z,7.22
2022-08-04T00:58:51.098Z,6.57
2022-08-04T01:01:48.784Z,7.50
2022-08-04T01:05:02.627Z,7.35
2022-08-04T01:08:25.931Z,7.82
2022-08-04T01:11:27.708Z,6.78
2022-08-04T01:14:44.275Z,6.65
2022-08-04T01:17:49.904Z,7.55
2022-08-04T01:20:52.405Z,6.95
2022-08-04T01:23:55.236Z,6.72
2022-08-04T01:27:03.801Z,7.00
2022-08-04T01:29:55.687Z,7.20
2022-08-04T01:33:04.426Z,7.32
2022-08-04T01:36:01.215Z,7.15
2022-08-04T01:38:47.324Z,7.05
2022-08-04T01:41:33.143Z,6.75
2022-08-04T01:44:19.137Z,6.45
2022-08-04T01:47:05.034Z,6.93
2022-08-04T01:49:51.714Z,6.70
2022-08-04T01:52:39.273Z,6.57
2022-08-04T01:55:54.343Z,6.22
2022-08-04T01:58:35.009Z,6.20
2022-08-04T02:01:20.723Z,6.65
2022-08-04T02:04:18.686Z,7.25
2022-08-04T02:07:35.255Z,7.22
2022-08-04T02:10:42.286Z,9.02
2022-08-04T02:16:46.248Z,9.98
2022-08-04T02:20:23.187Z,9.77
2022-08-04T02:23:14.053Z,9.55
2022-08-04T02:26:03.482Z,9.13
2022-08-04T02:29:11.549Z,8.77
2022-08-04T02:32:03.276Z,8.10
2022-08-04T02:34:54.230Z,7.90
2022-08-04T02:37:47.513Z,8.30
2022-08-04T02:40:36.544Z,8.45
2022-08-04T02:43:52.105Z,7.40
2022-08-04T02:46:33.655Z,7.15
2022-08-04T02:49:20.271Z,7.20
2022-08-04T02:52:09.905Z,8.32
2022-08-04T02:54:58.244Z,7.75
2022-08-04T02:57:47.472Z,7.35
2022-08-04T03:00:33.595Z,7.22
2022-08-04T03:03:45.330Z,6.68
2022-08-04T03:06:54.414Z,6.43
2022-08-04T03:10:10.341Z,7.53
2022-08-04T03:13:03.005Z,7.57
2022-08-04T03:16:33.470Z,6.97
2022-08-04T03:19:42.210Z,6.95
2022-08-04T03:23:14.738Z,6.35
2022-08-04T03:26:27.415Z,6.90
2022-08-04T03:29:40.877Z,6.55
2022-08-04T03:32:42.152Z,6.40
2022-08-04T03:35:45.894Z,7.45
2022-08-04T03:39:21.728Z,7.97
2022-08-04T03:42:38.465Z,8.27
2022-08-04T03:46:09.776Z,9.40
2022-08-04T03:49:30.911Z,9.82
2022-08-04T03:53:07.581Z,8.93
2022-08-04T03:56:26.684Z,8.15
2022-08-04T03:59:48.015Z,7.30
2022-08-04T04:03:06.254Z,7.95
2022-08-04T04:06:00.344Z,7.57
2022-08-04T04:09:16.127Z,7.43
2022-08-04T04:12:21.519Z,8.52
2022-08-04T04:15:10.052Z,8.35
2022-08-04T04:18:08.345Z,8.75
2022-08-04T04:21:17.400Z,8.85
2022-08-04T04:24:36.249Z,8.18
2022-08-04T04:27:22.019Z,7.05
2022-08-04T04:30:19.180Z,7.30
2022-08-04T04:33:37.583Z,6.72
2022-08-04T04:36:39.744Z,7.25
2022-08-04T04:39:44.119Z,7.60
2022-08-04T04:42:37.706Z,6.70
2022-08-04T04:45:33.679Z,6.57
2022-08-04T04:48:28.411Z,6.45
2022-08-04T04:51:17.099Z,8.13
2022-08-04T04:54:14.419Z,7.10
2022-08-04T04:57:54.448Z,7.05
2022-08-04T05:00:49.255Z,7.95
2022-08-04T05:03:56.697Z,8.65
2022-08-04T05:07:09.304Z,8.18
2022-08-04T05:10:22.255Z,7.47
2022-08-04T05:14:37.359Z,6.05
2022-08-04T05:16:46.893Z,6.90
2022-08-04T05:20:02.796Z,7.53
2022-08-04T05:22:51.787Z,8.82
2022-08-04T05:26:09.189Z,7.07
2022-08-04T05:28:58.264Z,6.13
2022-08-04T05:31:51.543Z,6.65
2022-08-04T05:34:45.208Z,7.10
2022-08-04T05:37:34.271Z,6.53
2022-08-04T05:40:20.366Z,6.75
2022-08-04T05:43:06.980Z,6.55
2022-08-04T05:45:53.310Z,6.32
2022-08-04T05:48:40.831Z,6.28
2022-08-04T05:51:27.020Z,5.07
2022-08-04T05:54:14.053Z,5.55
2022-08-04T05:57:00.471Z,5.15
2022-08-04T05:59:49.711Z,4.70
2022-08-04T06:02:37.439Z,5.22
2022-08-04T06:05:24.348Z,5.78
2022-08-04T06:08:13.280Z,5.05
2022-08-04T06:11:04.822Z,5.13
2022-08-04T06:13:57.595Z,5.75
2022-08-04T06:16:51.157Z,7.05
2022-08-04T06:20:03.962Z,5.20
2022-08-04T06:22:49.459Z,6.38
2022-08-04T06:25:41.600Z,6.43
2022-08-04T06:28:29.664Z,5.40
2022-08-04T06:32:31.616Z,5.82
2022-08-04T06:34:46.639Z,5.45
2022-08-04T06:37:42.032Z,5.45
2022-08-04T06:40:33.333Z,5.47
2022-08-04T06:43:20.875Z,5.50
2022-08-04T06:46:07.491Z,5.60
2022-08-04T06:48:54.399Z,5.22
2022-08-04T06:51:48.717Z,6.32
2022-08-04T06:54:35.559Z,5.35
2022-08-04T06:57:24.890Z,4.85
2022-08-04T07:00:16.706Z,5.13
2022-08-04T07:03:03.252Z,5.95
2022-08-04T07:05:49.462Z,5.70
2022-08-04T07:08:35.831Z,6.07
2022-08-04T07:11:21.669Z,5.60
2022-08-04T07:14:07.372Z,5.57
2022-08-04T07:16:54.320Z,5.70
2022-08-04T07:19:39.793Z,5.45
2022-08-04T07:22:26.888Z,5.38
2022-08-04T07:25:13.198Z,4.88
2022-08-04T07:27:58.656Z,4.55
2022-08-04T07:30:45.587Z,4.50
2022-08-04T07:33:31.764Z,4.30
2022-08-04T07:36:17.144Z,3.83
2022-08-04T07:39:02.988Z,3.78
2022-08-04T07:41:49.136Z,3.75
2022-08-04T07:44:38.313Z,3.15
2022-08-04T07:47:25.553Z,3.83
2022-08-04T07:50:12.735Z,3.72
2022-08-04T07:53:15.621Z,3.30
2022-08-04T07:56:04.231Z,3.80
2022-08-04T07:58:50.618Z,3.47
2022-08-04T08:01:37.574Z,3.90
2022-08-04T08:04:23.338Z,3.55
2022-08-04T08:07:09.128Z,3.70
2022-08-04T08:09:54.444Z,3.47
2022-08-04T08:12:51.172Z,3.50
2022-08-04T08:15:39.215Z,2.88
2022-08-04T08:18:25.160Z,3.20
2022-08-04T08:21:10.868Z,3.50
2022-08-04T08:23:57.407Z,2.80
2022-08-04T08:26:45.513Z,2.97
2022-08-04T08:29:34.117Z,2.83
2022-08-04T08:32:20.266Z,3.10
2022-08-04T08:35:07.021Z,3.13
2022-08-04T08:37:58.508Z,2.90
2022-08-04T08:40:46.891Z,3.20
2022-08-04T08:44:03.925Z,2.50
2022-08-04T08:47:18.037Z,3.07
2022-08-04T08:50:04.660Z,2.65
2022-08-04T08:53:15.228Z,3.22
2022-08-04T08:56:33.132Z,2.80
2022-08-04T09:00:00.643Z,2.78
2022-08-04T09:03:24.373Z,2.50
2022-08-04T09:06:19.184Z,2.67
2022-08-04T09:09:19.884Z,2.92
2022-08-04T09:12:11.452Z,2.75
2022-08-04T09:15:12.150Z,2.55
2022-08-04T09:18:07.406Z,2.90
2022-08-04T09:21:17.787Z,3.45
2022-08-04T09:24:48.109Z,3.20
2022-08-04T09:27:55.237Z,2.97
2022-08-04T09:30:58.030Z,3.15
2022-08-04T09:34:23.930Z,2.97
2022-08-04T09:37:19.867Z,3.00
2022-08-04T09:40:31.425Z,3.30
2022-08-04T09:44:50.228Z,2.92
2022-08-04T09:47:25.648Z,3.05
2022-08-04T09:50:49.972Z,3.90
2022-08-04T09:53:54.739Z,3.58
2022-08-04T09:56:48.983Z,3.63
2022-08-04T10:00:09.296Z,3.58
2022-08-04T10:03:02.680Z,3.30
2022-08-04T10:06:10.461Z,3.70
2022-08-04T10:09:05.024Z,3.42
2022-08-04T10:12:05.156Z,3.67
2022-08-04T10:14:58.653Z,3.28
2022-08-04T10:18:14.598Z,4.10
2022-08-04T10:21:10.168Z,3.83
2022-08-04T10:24:40.447Z,4.03
2022-08-04T10:28:10.664Z,3.97
2022-08-04T10:31:00.824Z,3.05
2022-08-04T10:34:23.961Z,2.90
2022-08-04T10:37:59.118Z,2.58
2022-08-04T10:40:56.313Z,2.80
2022-08-04T10:44:03.530Z,2.58
2022-08-04T10:47:00.838Z,2.35
2022-08-04T10:49:54.474Z,2.42
2022-08-04T10:52:55.209Z,2.47
2022-08-04T10:56:06.952Z,2.05
2022-08-04T10:59:06.885Z,2.40
2022-08-04T11:02:03.541Z,2.92
2022-08-04T11:05:01.806Z,2.25
2022-08-04T11:07:51.439Z,2.15
2022-08-04T11:10:47.339Z,1.98
2022-08-04T11:14:01.501Z,2.30
2022-08-04T11:16:57.664Z,2.22
2022-08-04T11:20:33.063Z,2.28
2022-08-04T11:23:14.353Z,2.28
2022-08-04T11:26:15.583Z,2.42
2022-08-04T11:29:15.264Z,1.90
2022-08-04T11:32:03.958Z,2.70
2022-08-04T11:34:55.106Z,2.22
2022-08-04T11:37:50.492Z,2.35
2022-08-04T11:41:02.293Z,2.35
2022-08-04T11:44:03.175Z,2.17
2022-08-04T11:46:54.501Z,2.22
2022-08-04T11:50:05.928Z,2.35
2022-08-04T11:52:55.011Z,1.98
2022-08-04T11:56:07.909Z,2.35
2022-08-04T11:58:50.487Z,2.22
2022-08-04T12:02:00.987Z,1.70
2022-08-04T12:05:02.323Z,1.30
2022-08-04T12:08:00.173Z,1.35
2022-08-04T12:10:51.443Z,1.40
2022-08-04T12:14:03.880Z,1.50
2022-08-04T12:17:01.532Z,1.40
2022-08-04T12:20:31.365Z,1.33
2022-08-04T12:23:31.017Z,1.33
2022-08-04T12:26:26.519Z,1.60
2022-08-04T12:29:16.403Z,1.50
2022-08-04T12:32:26.662Z,1.38
2022-08-04T12:35:26.058Z,1.10
2022-08-04T12:38:14.448Z,1.48
2022-08-04T12:41:04.790Z,1.60
2022-08-04T12:43:51.038Z,1.33
2022-08-04T12:46:37.964Z,1.60
2022-08-04T12:49:24.166Z,2.00
2022-08-04T12:52:11.320Z,1.23
2022-08-04T12:54:59.002Z,1.10
2022-08-04T12:57:46.895Z,1.30
2022-08-04T13:00:41.882Z,1.20
2022-08-04T13:03:44.173Z,1.13
2022-08-04T13:06:33.807Z,1.55
2022-08-04T13:09:22.669Z,1.42
2022-08-04T13:12:32.749Z,2.08
2022-08-04T13:15:22.371Z,1.50
2022-08-04T13:18:15.015Z,1.50
2022-08-04T13:21:22.863Z,1.30
2022-08-04T13:24:21.986Z,1.20
2022-08-04T13:27:17.852Z,1.20
2022-08-04T13:30:04.217Z,1.13
2022-08-04T13:32:57.692Z,1.20
2022-08-04T13:35:55.201Z,1.30
2022-08-04T13:39:07.869Z,0.95
2022-08-04T13:41:59.177Z,1.00
2022-08-04T13:44:49.090Z,1.00
2022-08-04T13:47:38.362Z,1.02
2022-08-04T13:50:27.647Z,1.10
2022-08-04T13:53:13.494Z,1.20
2022-08-04T13:56:01.575Z,1.10
2022-08-04T13:58:48.844Z,1.92
2022-08-04T14:01:36.436Z,1.38
2022-08-04T14:04:25.899Z,1.40
2022-08-04T14:07:20.905Z,1.83
2022-08-04T14:10:11.820Z,1.38
2022-08-04T14:12:57.624Z,1.10
2022-08-04T14:16:01.823Z,1.45
2022-08-04T14:19:00.035Z,1.00
2022-08-04T14:21:45.460Z,1.02
2022-08-04T14:24:31.228Z,1.08
2022-08-04T14:27:16.819Z,1.40
2022-08-04T14:30:02.416Z,1.13
2022-08-04T14:34:04.644Z,1.05
2022-08-04T14:36:19.433Z,1.27
2022-08-04T14:39:08.391Z,1.05
2022-08-04T14:41:54.723Z,1.27
2022-08-04T14:44:55.222Z,1.30
2022-08-04T14:47:51.929Z,1.23
2022-08-04T14:50:46.942Z,1.35
2022-08-04T14:53:32.736Z,1.67
2022-08-04T14:56:44.885Z,1.17
2022-08-04T14:59:24.990Z,1.13
2022-08-04T15:02:11.849Z,1.30
2022-08-04T15:04:59.352Z,0.70
2022-08-04T15:08:05.473Z,1.17
2022-08-04T15:10:53.180Z,0.90
2022-08-04T15:13:38.604Z,1.20
2022-08-04T15:16:26.202Z,1.20
2022-08-04T15:19:11.744Z,0.93
2022-08-04T15:21:57.574Z,1.45
2022-08-04T15:24:43.146Z,1.00
2022-08-04T15:27:36.204Z,1.10
2022-08-04T15:30:22.559Z,1.15
2022-08-04T15:33:09.176Z,1.20
2022-08-04T15:36:22.507Z,1.50
2022-08-04T15:39:21.211Z,1.10
2022-08-04T15:42:18.901Z,1.90
2022-08-04T15:45:23.772Z,2.00
2022-08-04T15:48:29.538Z,1.92
2022-08-04T15:51:31.876Z,1.67
2022-08-04T15:54:27.488Z,2.53
2022-08-04T15:57:16.140Z,2.00
2022-08-04T16:00:14.281Z,2.63
2022-08-04T16:03:00.530Z,2.15
2022-08-04T16:05:46.266Z,2.42
2022-08-04T16:08:57.788Z,2.10
2022-08-04T16:11:43.854Z,2.38
2022-08-04T16:14:35.842Z,2.67
2022-08-04T16:17:21.396Z,1.80
2022-08-04T16:20:12.388Z,2.15
2022-08-04T16:23:07.160Z,2.05
2022-08-04T16:25:59.663Z,1.58
2022-08-04T16:28:45.138Z,1.23
2022-08-04T16:31:34.305Z,1.40
2022-08-04T16:34:53.815Z,1.15
2022-08-04T16:37:36.037Z,1.05
2022-08-04T16:40:39.016Z,1.20
2022-08-04T16:43:30.572Z,1.00
2022-08-04T16:47:21.489Z,1.30
2022-08-04T16:50:02.351Z,1.00
2022-08-04T16:52:56.791Z,1.35
2022-08-04T16:55:49.778Z,1.00
2022-08-04T16:58:36.743Z,1.33
2022-08-04T17:01:33.496Z,1.05
2022-08-04T17:04:32.159Z,1.55
2022-08-04T17:07:20.950Z,1.25
2022-08-04T17:10:07.099Z,1.38
2022-08-04T17:13:08.395Z,1.38
2022-08-04T17:16:10.450Z,1.45
2022-08-04T17:18:59.167Z,1.50
2022-08-04T17:21:45.128Z,1.40
2022-08-04T17:24:33.271Z,1.30
2022-08-04T17:28:19.135Z,1.30
2022-08-04T17:30:27.860Z,1.25
2022-08-04T17:33:15.455Z,1.40
2022-08-04T17:36:03.830Z,1.35
2022-08-04T17:38:54.764Z,1.25
2022-08-04T17:41:40.885Z,1.40
2022-08-04T17:44:38.765Z,1.70
2022-08-04T17:47:24.427Z,1.50
2022-08-04T17:50:11.649Z,1.33
2022-08-04T17:53:11.791Z,1.40
2022-08-04T17:56:00.106Z,1.45
2022-08-04T17:59:06.987Z,1.45
2022-08-04T18:01:52.568Z,2.05
2022-08-04T18:05:07.355Z,1.63
2022-08-04T18:08:39.724Z,2.05
2022-08-04T18:10:58.457Z,1.83
2022-08-04T18:13:52.267Z,1.60
2022-08-04T18:16:45.609Z,1.50
2022-08-04T18:19:31.321Z,1.83
2022-08-04T18:22:27.954Z,1.35
2022-08-04T18:25:15.671Z,1.50
2022-08-04T18:28:09.644Z,1.50
2022-08-04T18:30:59.738Z,1.80
2022-08-04T18:33:57.300Z,1.73
2022-08-04T18:36:55.590Z,1.45
2022-08-04T18:40:24.934Z,1.70
2022-08-04T18:42:50.566Z,1.90
2022-08-04T18:45:36.080Z,1.60
2022-08-04T18:48:22.537Z,3.55
2022-08-04T18:54:31.881Z,2.35
2022-08-04T18:57:59.418Z,3.63
2022-08-04T19:00:35.070Z,1.73
2022-08-04T19:03:23.056Z,1.77
2022-08-04T19:06:09.302Z,2.00
2022-08-04T19:08:56.943Z,1.77
2022-08-04T19:11:55.512Z,2.22
2022-08-04T19:14:41.411Z,1.92
2022-08-04T19:17:52.648Z,2.33
2022-08-04T19:20:39.492Z,2.10
2022-08-04T19:24:10.788Z,1.90
2022-08-04T19:26:33.113Z,1.75
2022-08-04T19:29:18.814Z,1.95
2022-08-04T19:32:04.198Z,1.77
2022-08-04T19:34:59.601Z,2.28
2022-08-04T19:37:58.596Z,2.45
2022-08-04T19:40:52.692Z,2.78
2022-08-04T19:43:38.937Z,2.88
2022-08-04T19:46:29.903Z,2.50
2022-08-04T19:50:04.858Z,2.60
2022-08-04T19:52:33.913Z,2.88
2022-08-04T19:55:37.502Z,2.75
2022-08-04T19:58:26.199Z,3.55
2022-08-04T20:01:14.407Z,2.92
2022-08-04T20:04:20.056Z,2.83
2022-08-04T20:07:08.728Z,2.60
2022-08-04T20:10:00.241Z,2.63
2022-08-04T20:12:55.680Z,2.40
2022-08-04T20:15:55.387Z,2.47
2022-08-04T20:18:55.517Z,2.67
2022-08-04T20:21:55.250Z,2.58
2022-08-04T20:24:49.178Z,2.65
2022-08-04T20:27:51.657Z,2.92
2022-08-04T20:30:47.703Z,2.53
2022-08-04T20:33:34.471Z,2.78
2022-08-04T20:36:23.111Z,3.47
2022-08-04T20:39:09.526Z,3.90
2022-08-04T20:41:55.373Z,8.63
2022-08-04T20:44:46.844Z,5.15
2022-08-04T20:47:35.881Z,4.40
2022-08-04T20:50:29.880Z,6.95
2022-08-04T20:53:17.195Z,4.43
2022-08-04T20:56:03.100Z,2.92
2022-08-04T20:58:48.672Z,2.92
2022-08-04T21:01:34.078Z,3.08
2022-08-04T21:04:48.467Z,3.92
2022-08-04T21:07:36.352Z,3.20
2022-08-04T21:10:30.362Z,3.17
2022-08-04T21:13:16.579Z,2.97
2022-08-04T21:16:04.349Z,3.10
2022-08-04T21:18:49.737Z,3.08
2022-08-04T21:21:35.813Z,3.08
2022-08-04T21:24:26.103Z,3.38
2022-08-04T21:27:12.761Z,4.05
2022-08-04T21:29:59.691Z,3.28
2022-08-04T21:32:48.673Z,3.45
2022-08-04T21:35:38.323Z,3.40
2022-08-04T21:38:28.091Z,3.17
2022-08-04T21:41:13.771Z,3.47
2022-08-04T21:44:12.995Z,3.33
2022-08-04T21:46:58.421Z,3.22
2022-08-04T21:49:56.995Z,3.50
2022-08-04T21:52:43.162Z,3.22
2022-08-04T21:56:04.529Z,2.90
2022-08-04T21:58:37.249Z,2.92
2022-08-04T22:01:49.902Z,3.15
2022-08-04T22:04:28.933Z,3.08
2022-08-04T22:07:23.044Z,3.22
2022-08-04T22:10:09.218Z,3.17
2022-08-04T22:12:54.956Z,3.40
2022-08-04T22:16:04.658Z,3.60
2022-08-04T22:18:50.135Z,3.25
2022-08-04T22:21:45.201Z,3.67
2022-08-04T22:24:31.459Z,3.92
2022-08-04T22:27:36.352Z,3.35
2022-08-04T22:30:23.858Z,3.28
2022-08-04T22:33:10.322Z,4.07
2022-08-04T22:35:57.886Z,3.35
2022-08-04T22:38:50.120Z,3.65
2022-08-04T22:41:48.837Z,3.70
2022-08-04T22:44:45.559Z,3.20
2022-08-04T22:47:30.776Z,3.10
2022-08-04T22:50:27.941Z,3.17
2022-08-04T22:53:17.713Z,3.40
2022-08-04T22:56:10.812Z,3.30
2022-08-04T22:58:56.804Z,3.60
2022-08-04T23:01:57.843Z,3.55
2022-08-04T23:04:45.624Z,3.33
2022-08-04T23:07:47.270Z,3.08
2022-08-04T23:10:36.900Z,3.05
2022-08-04T23:13:26.812Z,3.63
2022-08-04T23:16:13.113Z,2.75
2022-08-04T23:18:58.384Z,3.40
2022-08-04T23:21:47.398Z,3.22
2022-08-04T23:24:33.624Z,3.97
2022-08-04T23:27:19.762Z,3.30
2022-08-04T23:30:06.032Z,4.07
2022-08-04T23:32:54.879Z,3.92
2022-08-04T23:35:40.457Z,3.22
2022-08-04T23:38:30.953Z,3.45
2022-08-04T23:41:19.790Z,3.40
2022-08-04T23:44:05.924Z,3.67
2022-08-04T23:47:04.415Z,3.63
2022-08-04T23:49:50.341Z,4.13
2022-08-04T23:52:35.852Z,4.05
2022-08-04T23:55:21.470Z,4.43
2022-08-04T23:58:18.832Z,3.75
